createdAt,value
2019-05-14T00:00:41.742Z,8.85
2019-05-14T00:03:16.151Z,9.08
2019-05-14T00:05:51.876Z,9.03
2019-05-14T00:08:26.188Z,8.90
2019-05-14T00:11:01.417Z,9.08
2019-05-14T00:13:35.791Z,8.78
2019-05-14T00:16:11.845Z,9.10
2019-05-14T00:18:46.073Z,8.13
2019-05-14T00:21:21.108Z,9.15
2019-05-14T00:23:55.131Z,9.33
2019-05-14T00:26:29.184Z,9.40
2019-05-14T00:29:03.373Z,9.30
2019-05-14T00:31:37.593Z,9.15
2019-05-14T00:34:11.824Z,9.30
2019-05-14T00:36:46.897Z,9.08
2019-05-14T00:39:21.414Z,9.40
2019-05-14T00:41:55.956Z,9.38
2019-05-14T00:44:32.155Z,9.53
2019-05-14T00:47:06.402Z,10.13
2019-05-14T00:49:42.469Z,9.10
2019-05-14T00:52:17.006Z,9.30
2019-05-14T00:54:52.246Z,9.50
2019-05-14T00:57:26.886Z,8.93
2019-05-14T01:00:01.280Z,9.40
2019-05-14T01:02:35.663Z,9.30
2019-05-14T01:05:12.431Z,10.08
2019-05-14T01:07:46.489Z,9.60
2019-05-14T01:10:22.182Z,9.98
2019-05-14T01:12:56.605Z,10.93
2019-05-14T01:15:32.248Z,9.70
2019-05-14T01:18:07.020Z,10.68
2019-05-14T01:20:41.281Z,9.53
2019-05-14T01:23:15.566Z,10.28
2019-05-14T01:25:51.454Z,9.78
2019-05-14T01:28:24.921Z,9.30
2019-05-14T01:31:01.011Z,10.00
2019-05-14T01:33:34.639Z,9.60
2019-05-14T01:36:08.830Z,10.00
2019-05-14T01:38:43.042Z,9.58
2019-05-14T01:41:17.184Z,8.90
2019-05-14T01:43:51.491Z,9.40
2019-05-14T01:46:25.699Z,9.05
2019-05-14T01:49:01.549Z,9.35
2019-05-14T01:51:36.440Z,8.93
2019-05-14T01:54:11.908Z,9.38
2019-05-14T01:56:46.837Z,8.25
2019-05-14T01:59:21.299Z,9.00
2019-05-14T02:01:55.475Z,8.65
2019-05-14T02:04:31.660Z,8.65
2019-05-14T02:07:05.347Z,8.55
2019-05-14T02:09:41.789Z,8.20
2019-05-14T02:12:15.599Z,8.28
2019-05-14T02:14:51.215Z,8.23
2019-05-14T02:17:25.645Z,8.55
2019-05-14T02:20:01.863Z,8.85
2019-05-14T02:22:35.738Z,9.30
2019-05-14T02:25:11.627Z,9.60
2019-05-14T02:27:46.277Z,9.48
2019-05-14T02:30:28.551Z,9.30
2019-05-14T02:32:59.420Z,9.80
2019-05-14T02:35:32.319Z,9.58
2019-05-14T02:38:10.117Z,9.35
2019-05-14T02:40:42.607Z,9.18
2019-05-14T02:43:19.638Z,9.30
2019-05-14T02:46:09.491Z,9.40
2019-05-14T02:48:29.464Z,9.18
2019-05-14T02:51:03.877Z,9.73
2019-05-14T02:53:39.159Z,9.60
2019-05-14T02:56:13.357Z,9.30
2019-05-14T02:58:49.871Z,10.18
2019-05-14T03:01:23.550Z,10.10
2019-05-14T03:03:59.854Z,10.32
2019-05-14T03:06:33.623Z,9.75
2019-05-14T03:09:09.754Z,9.28
2019-05-14T03:11:44.054Z,9.08
2019-05-14T03:14:19.610Z,9.53
2019-05-14T03:16:53.960Z,9.10
2019-05-14T03:19:29.789Z,9.73
2019-05-14T03:22:04.089Z,9.48
2019-05-14T03:24:39.693Z,8.83
2019-05-14T03:27:14.541Z,8.40
2019-05-14T03:29:50.188Z,8.25
2019-05-14T03:32:24.566Z,8.75
2019-05-14T03:35:03.655Z,9.00
2019-05-14T03:37:35.166Z,8.98
2019-05-14T03:40:10.420Z,9.15
2019-05-14T03:42:44.663Z,8.80
2019-05-14T03:45:25.022Z,8.73
2019-05-14T03:48:00.574Z,8.63
2019-05-14T03:50:35.000Z,8.63
2019-05-14T03:53:10.170Z,8.73
2019-05-14T03:55:45.514Z,12.25
2019-05-14T03:58:21.078Z,12.28
2019-05-14T04:01:01.103Z,12.65
2019-05-14T04:03:39.629Z,12.80
2019-05-14T04:06:13.248Z,12.88
2019-05-14T04:08:49.708Z,12.25
2019-05-14T04:11:29.192Z,11.88
2019-05-14T04:14:04.648Z,12.23
2019-05-14T04:16:59.526Z,11.80
2019-05-14T04:19:19.029Z,12.40
2019-05-14T04:21:54.225Z,11.28
2019-05-14T04:24:31.225Z,11.43
2019-05-14T04:27:11.744Z,11.03
2019-05-14T04:29:44.050Z,11.28
2019-05-14T04:32:20.247Z,11.75
2019-05-14T04:34:54.497Z,11.80
2019-05-14T04:37:29.157Z,11.63
2019-05-14T04:40:03.977Z,12.18
2019-05-14T04:42:40.106Z,12.30
2019-05-14T04:45:13.540Z,12.40
2019-05-14T04:47:49.910Z,11.75
2019-05-14T04:50:25.532Z,12.63
2019-05-14T04:52:59.906Z,11.90
2019-05-14T04:55:34.072Z,12.33
2019-05-14T04:58:10.103Z,11.83
2019-05-14T05:00:44.155Z,38.23
2019-05-14T05:03:19.994Z,25.72
2019-05-14T05:05:54.612Z,20.17
2019-05-14T05:08:30.405Z,18.17
2019-05-14T05:11:05.011Z,19.40
2019-05-14T05:13:39.893Z,17.87
2019-05-14T05:16:14.654Z,17.37
2019-05-14T05:18:49.503Z,17.00
2019-05-14T05:21:23.818Z,16.52
2019-05-14T05:23:58.514Z,16.23
2019-05-14T05:26:32.679Z,16.00
2019-05-14T05:29:10.240Z,14.93
2019-05-14T05:31:42.941Z,15.53
2019-05-14T05:34:19.198Z,14.98
2019-05-14T05:36:54.130Z,14.85
2019-05-14T05:39:30.358Z,14.35
2019-05-14T05:42:04.886Z,14.07
2019-05-14T05:44:39.651Z,12.78
2019-05-14T05:47:14.493Z,13.55
2019-05-14T05:49:49.031Z,14.03
2019-05-14T05:52:23.509Z,13.22
2019-05-14T05:54:58.344Z,13.18
2019-05-14T05:57:32.666Z,12.90
2019-05-14T06:00:09.412Z,13.28
2019-05-14T06:02:44.103Z,13.28
2019-05-14T06:05:19.512Z,12.40
2019-05-14T06:07:53.806Z,13.20
2019-05-14T06:10:29.095Z,12.55
2019-05-14T06:13:03.892Z,12.73
2019-05-14T06:15:45.619Z,13.05
2019-05-14T06:18:19.431Z,12.60
2019-05-14T06:20:51.756Z,12.55
2019-05-14T06:23:28.456Z,13.60
2019-05-14T06:26:02.496Z,12.70
2019-05-14T06:28:40.370Z,13.15
2019-05-14T06:31:13.052Z,13.62
2019-05-14T06:33:48.654Z,13.18
2019-05-14T06:36:24.180Z,12.47
2019-05-14T06:38:58.765Z,12.73
2019-05-14T06:41:33.074Z,12.95
2019-05-14T06:44:09.179Z,13.32
2019-05-14T06:46:43.402Z,13.53
2019-05-14T06:49:18.353Z,12.65
2019-05-14T06:51:52.686Z,12.40
2019-05-14T06:54:29.125Z,12.50
2019-05-14T06:57:02.847Z,12.80
2019-05-14T06:59:38.088Z,12.73
2019-05-14T07:02:12.615Z,12.93
2019-05-14T07:04:48.514Z,12.40
2019-05-14T07:07:23.222Z,12.58
2019-05-14T07:09:58.176Z,11.85
2019-05-14T07:12:32.559Z,11.85
2019-05-14T07:15:09.033Z,11.78
2019-05-14T07:17:42.497Z,12.13
2019-05-14T07:20:18.926Z,12.85
2019-05-14T07:22:53.788Z,11.97
2019-05-14T07:25:29.260Z,13.22
2019-05-14T07:28:03.422Z,13.32
2019-05-14T07:30:39.646Z,12.85
2019-05-14T07:33:13.920Z,12.73
2019-05-14T07:35:48.809Z,13.03
2019-05-14T07:38:23.218Z,12.53
2019-05-14T07:40:58.521Z,12.30
2019-05-14T07:43:33.114Z,12.25
2019-05-14T07:46:08.528Z,11.15
2019-05-14T07:48:42.992Z,11.22
2019-05-14T07:51:19.062Z,10.70
2019-05-14T07:53:53.785Z,11.45
2019-05-14T07:56:29.276Z,11.38
2019-05-14T07:59:05.361Z,10.78
2019-05-14T08:01:40.678Z,10.65
2019-05-14T08:04:17.892Z,10.55
2019-05-14T08:06:52.598Z,10.10
2019-05-14T08:09:28.241Z,10.43
2019-05-14T08:12:03.467Z,10.28
2019-05-14T08:14:46.130Z,9.58
2019-05-14T08:17:14.031Z,9.08
2019-05-14T08:19:49.105Z,8.68
2019-05-14T08:22:23.712Z,9.55
2019-05-14T08:24:58.196Z,9.68
2019-05-14T08:27:32.398Z,9.03
2019-05-14T08:30:08.220Z,8.48
2019-05-14T08:32:42.609Z,8.28
2019-05-14T08:35:18.541Z,7.70
2019-05-14T08:38:04.704Z,8.55
2019-05-14T08:40:28.887Z,7.97
2019-05-14T08:43:03.301Z,8.18
2019-05-14T08:45:38.913Z,8.38
2019-05-14T08:48:14.224Z,8.50
2019-05-14T08:50:49.178Z,8.25
2019-05-14T08:53:23.454Z,7.25
2019-05-14T08:55:58.799Z,7.85
2019-05-14T08:58:33.568Z,7.25
2019-05-14T09:01:08.386Z,7.40
2019-05-14T09:03:42.961Z,7.25
2019-05-14T09:06:18.626Z,6.95
2019-05-14T09:08:53.172Z,6.97
2019-05-14T09:11:34.318Z,7.12
2019-05-14T09:14:03.729Z,7.35
2019-05-14T09:16:46.283Z,7.15
2019-05-14T09:19:14.158Z,6.67
2019-05-14T09:21:49.662Z,6.80
2019-05-14T09:24:24.439Z,6.65
2019-05-14T09:26:59.389Z,6.83
2019-05-14T09:29:33.607Z,6.15
2019-05-14T09:32:09.635Z,6.00
2019-05-14T09:34:48.640Z,6.42
2019-05-14T09:37:23.442Z,6.72
2019-05-14T09:40:04.829Z,6.47
2019-05-14T09:42:41.713Z,6.15
2019-05-14T09:45:31.863Z,6.67
2019-05-14T09:48:18.084Z,7.73
2019-05-14T09:51:18.228Z,6.50
2019-05-14T09:54:02.944Z,6.67
2019-05-14T09:57:05.379Z,6.45
2019-05-14T10:02:34.622Z,6.40
2019-05-14T10:05:22.077Z,6.60
2019-05-14T10:08:08.970Z,6.28
2019-05-14T10:11:00.869Z,6.65
2019-05-14T10:13:59.908Z,6.20
2019-05-14T10:16:49.191Z,6.15
2019-05-14T10:19:38.901Z,6.20
2019-05-14T10:22:22.726Z,7.00
2019-05-14T10:25:12.234Z,6.12
2019-05-14T10:28:04.065Z,6.42
2019-05-14T10:33:38.822Z,7.30
2019-05-14T10:36:14.736Z,6.80
2019-05-14T10:38:49.099Z,6.55
2019-05-14T10:41:23.302Z,6.47
2019-05-14T10:43:58.933Z,6.90
2019-05-14T10:46:33.517Z,6.58
2019-05-14T10:49:17.427Z,6.85
2019-05-14T10:51:43.767Z,6.60
2019-05-14T10:54:24.986Z,7.03
2019-05-14T10:56:54.563Z,6.60
2019-05-14T10:59:29.431Z,6.37
2019-05-14T11:02:03.832Z,6.75
2019-05-14T11:04:38.918Z,6.40
2019-05-14T11:07:13.287Z,6.15
2019-05-14T11:09:48.642Z,6.25
2019-05-14T11:12:23.090Z,6.15
2019-05-14T11:14:57.504Z,6.08
2019-05-14T11:17:31.564Z,5.78
2019-05-14T11:20:08.075Z,6.10
2019-05-14T11:22:42.631Z,5.87
2019-05-14T11:25:19.582Z,5.83
2019-05-14T11:27:53.807Z,6.10
2019-05-14T11:30:28.751Z,5.83
2019-05-14T11:33:03.017Z,5.53
2019-05-14T11:35:39.406Z,4.95
2019-05-14T11:38:28.444Z,5.20
2019-05-14T11:40:50.018Z,5.37
2019-05-14T11:43:24.781Z,5.40
2019-05-14T11:45:59.486Z,5.67
2019-05-14T11:48:33.848Z,5.47
2019-05-14T11:51:08.970Z,5.40
2019-05-14T11:53:43.499Z,5.45
2019-05-14T11:56:19.388Z,5.08
2019-05-14T11:58:53.836Z,5.12
2019-05-14T12:01:29.801Z,5.78
2019-05-14T12:04:04.290Z,5.08
2019-05-14T12:06:39.270Z,5.22
2019-05-14T12:09:13.545Z,5.00
2019-05-14T12:11:47.652Z,5.45
2019-05-14T12:14:21.989Z,4.92
2019-05-14T12:16:56.291Z,5.00
2019-05-14T12:19:30.351Z,5.37
2019-05-14T12:22:08.564Z,4.85
2019-05-14T12:24:41.978Z,5.30
2019-05-14T12:27:19.151Z,4.78
2019-05-14T12:29:53.344Z,5.00
2019-05-14T12:32:29.525Z,5.40
2019-05-14T12:35:03.680Z,6.20
2019-05-14T12:37:38.841Z,5.72
2019-05-14T12:40:13.298Z,6.03
2019-05-14T12:42:49.837Z,6.80
2019-05-14T12:45:23.754Z,7.53
2019-05-14T12:47:58.543Z,6.50
2019-05-14T12:50:32.954Z,6.05
2019-05-14T12:53:08.364Z,6.40
2019-05-14T12:55:42.630Z,6.67
2019-05-14T12:58:19.989Z,6.40
2019-05-14T13:00:52.527Z,6.37
2019-05-14T13:03:28.493Z,6.28
2019-05-14T13:06:02.618Z,6.78
2019-05-14T13:08:38.753Z,6.50
2019-05-14T13:11:13.109Z,6.00
2019-05-14T13:13:48.987Z,6.20
2019-05-14T13:16:24.202Z,6.78
2019-05-14T13:18:59.852Z,6.62
2019-05-14T13:21:34.812Z,6.45
2019-05-14T13:24:09.188Z,5.70
2019-05-14T13:27:09.246Z,6.30
2019-05-14T13:29:42.828Z,6.53
2019-05-14T13:32:21.001Z,6.62
2019-05-14T13:34:55.426Z,6.03
2019-05-14T13:37:29.946Z,5.67
2019-05-14T13:40:04.205Z,5.85
2019-05-14T13:42:40.038Z,6.90
2019-05-14T13:45:15.011Z,6.67
2019-05-14T13:48:03.728Z,6.97
2019-05-14T13:50:39.963Z,6.58
2019-05-14T13:53:14.426Z,6.55
2019-05-14T13:55:57.127Z,7.08
2019-05-14T13:58:24.954Z,6.78
2019-05-14T14:00:59.657Z,6.50
2019-05-14T14:03:34.404Z,6.60
2019-05-14T14:06:11.202Z,6.87
2019-05-14T14:08:49.413Z,6.72
2019-05-14T14:11:21.115Z,6.97
2019-05-14T14:13:58.305Z,7.28
2019-05-14T14:16:31.754Z,7.10
2019-05-14T14:19:08.599Z,7.10
2019-05-14T14:21:42.671Z,7.60
2019-05-14T14:24:19.528Z,7.65
2019-05-14T14:26:53.420Z,7.58
2019-05-14T14:29:28.176Z,7.10
2019-05-14T14:32:02.624Z,7.62
2019-05-14T14:34:40.985Z,7.42
2019-05-14T14:37:12.932Z,7.60
2019-05-14T14:39:48.623Z,8.08
2019-05-14T14:42:23.108Z,7.78
2019-05-14T14:44:59.674Z,7.85
2019-05-14T14:47:33.833Z,8.50
2019-05-14T14:50:30.835Z,8.65
2019-05-14T14:53:09.260Z,8.18
2019-05-14T14:55:49.749Z,8.25
2019-05-14T14:58:23.890Z,8.90
2019-05-14T15:00:59.485Z,8.83
2019-05-14T15:03:33.808Z,8.18
2019-05-14T15:06:09.679Z,8.63
2019-05-14T15:08:49.416Z,8.50
2019-05-14T15:11:22.495Z,9.13
2019-05-14T15:13:58.724Z,9.08
2019-05-14T15:16:32.570Z,8.28
2019-05-14T15:19:09.234Z,9.08
2019-05-14T15:21:42.843Z,9.50
2019-05-14T15:24:19.439Z,9.80
2019-05-14T15:26:52.870Z,9.58
2019-05-14T15:29:28.421Z,9.98
2019-05-14T15:32:03.937Z,9.80
2019-05-14T15:34:38.119Z,9.35
2019-05-14T15:37:12.120Z,9.78
2019-05-14T15:39:48.906Z,10.43
2019-05-14T15:42:22.437Z,10.20
2019-05-14T15:44:59.577Z,10.25
2019-05-14T15:47:33.790Z,10.58
2019-05-14T15:50:09.212Z,11.75
2019-05-14T15:52:43.890Z,11.40
2019-05-14T15:55:18.492Z,11.68
2019-05-14T15:57:53.696Z,11.33
2019-05-14T16:00:29.233Z,11.40
2019-05-14T16:03:03.321Z,11.20
2019-05-14T16:05:39.397Z,11.68
2019-05-14T16:08:13.452Z,12.03
2019-05-14T16:10:47.469Z,11.90
2019-05-14T16:13:21.716Z,12.20
2019-05-14T16:15:55.690Z,11.95
2019-05-14T16:18:29.886Z,12.13
2019-05-14T16:21:03.932Z,11.33
2019-05-14T16:23:39.286Z,12.63
2019-05-14T16:26:13.742Z,11.78
2019-05-14T16:28:48.236Z,12.10
2019-05-14T16:31:22.520Z,11.57
2019-05-14T16:33:56.424Z,11.83
2019-05-14T16:36:30.778Z,10.88
2019-05-14T16:39:05.550Z,11.18
2019-05-14T16:41:39.869Z,10.45
2019-05-14T16:44:14.543Z,10.65
2019-05-14T16:46:48.887Z,10.72
2019-05-14T16:49:23.324Z,10.45
2019-05-14T16:51:59.662Z,10.68
2019-05-14T16:54:39.599Z,9.58
2019-05-14T16:57:13.700Z,10.32
2019-05-14T16:59:49.585Z,9.65
2019-05-14T17:02:24.642Z,9.55
2019-05-14T17:05:00.338Z,10.05
2019-05-14T17:07:38.527Z,9.38
2019-05-14T17:10:12.649Z,10.32
2019-05-14T17:12:53.656Z,9.95
2019-05-14T17:15:23.076Z,9.45
2019-05-14T17:17:59.681Z,9.98
2019-05-14T17:20:32.895Z,10.38
2019-05-14T17:23:09.040Z,10.82
2019-05-14T17:25:43.154Z,12.50
2019-05-14T17:28:20.937Z,12.88
2019-05-14T17:30:55.584Z,13.43
2019-05-14T17:33:30.177Z,12.18
2019-05-14T17:36:04.506Z,12.58
2019-05-14T17:38:39.313Z,14.18
2019-05-14T17:41:13.731Z,14.13
2019-05-14T17:43:49.287Z,13.38
2019-05-14T17:46:23.744Z,13.05
2019-05-14T17:48:59.144Z,13.08
2019-05-14T17:51:33.480Z,12.47
2019-05-14T17:54:09.264Z,12.37
2019-05-14T17:56:43.727Z,12.20
2019-05-14T17:59:19.141Z,12.60
2019-05-14T18:01:53.767Z,11.50
2019-05-14T18:04:28.355Z,12.35
2019-05-14T18:07:02.759Z,11.65
2019-05-14T18:09:40.457Z,11.43
2019-05-14T18:12:22.149Z,11.55
2019-05-14T18:14:58.796Z,10.07
2019-05-14T18:17:32.688Z,10.58
2019-05-14T18:20:08.429Z,10.38
2019-05-14T18:22:42.812Z,9.93
2019-05-14T18:25:19.332Z,10.40
2019-05-14T18:27:54.610Z,10.32
2019-05-14T18:30:29.150Z,10.45
2019-05-14T18:33:03.963Z,10.50
2019-05-14T18:35:47.410Z,10.23
2019-05-14T18:38:20.735Z,10.80
2019-05-14T18:40:55.150Z,11.15
2019-05-14T18:43:30.249Z,10.50
2019-05-14T18:46:04.345Z,10.08
2019-05-14T18:48:38.551Z,10.90
2019-05-14T18:51:12.796Z,10.53
2019-05-14T18:53:48.932Z,10.20
2019-05-14T18:56:24.470Z,10.78
2019-05-14T18:58:59.776Z,10.63
2019-05-14T19:01:33.868Z,10.60
2019-05-14T19:04:08.331Z,10.20
2019-05-14T19:06:42.595Z,10.58
2019-05-14T19:09:18.600Z,9.75
2019-05-14T19:11:53.040Z,9.50
2019-05-14T19:14:29.226Z,9.50
2019-05-14T19:17:03.341Z,10.20
2019-05-14T19:19:38.602Z,9.38
2019-05-14T19:22:13.194Z,9.73
2019-05-14T19:24:49.208Z,9.80
2019-05-14T19:27:23.635Z,8.85
2019-05-14T19:29:59.502Z,9.45
2019-05-14T19:32:34.304Z,9.03
2019-05-14T19:35:08.959Z,9.55
2019-05-14T19:37:43.208Z,9.90
2019-05-14T19:40:18.983Z,9.83
2019-05-14T19:42:56.435Z,9.58
2019-05-14T19:45:30.624Z,9.43
2019-05-14T19:48:04.643Z,9.40
2019-05-14T19:50:39.283Z,9.68
2019-05-14T19:53:14.516Z,9.88
2019-05-14T19:55:48.826Z,10.00
2019-05-14T19:58:25.860Z,9.53
2019-05-14T20:01:00.163Z,9.73
2019-05-14T20:03:34.438Z,9.28
2019-05-14T20:06:09.230Z,10.03
2019-05-14T20:08:43.314Z,9.90
2019-05-14T20:11:19.294Z,10.20
2019-05-14T20:13:53.120Z,9.60
2019-05-14T20:16:28.579Z,9.30
2019-05-14T20:19:03.019Z,9.68
2019-05-14T20:21:38.777Z,9.08
2019-05-14T20:24:12.735Z,9.38
2019-05-14T20:26:48.889Z,9.20
2019-05-14T20:29:22.764Z,9.20
2019-05-14T20:31:59.478Z,8.88
2019-05-14T20:34:32.456Z,9.28
2019-05-14T20:37:08.472Z,8.83
2019-05-14T20:39:41.794Z,9.10
2019-05-14T20:42:18.340Z,9.43
2019-05-14T20:44:51.369Z,9.63
2019-05-14T20:47:25.480Z,10.28
2019-05-14T20:49:59.548Z,10.13
2019-05-14T20:52:33.895Z,10.23
2019-05-14T20:55:09.746Z,9.83
2019-05-14T20:57:43.811Z,9.95
2019-05-14T21:00:19.301Z,9.80
2019-05-14T21:02:53.708Z,10.35
2019-05-14T21:05:28.662Z,10.90
2019-05-14T21:08:03.255Z,11.45
2019-05-14T21:10:38.474Z,11.12
2019-05-14T21:13:12.790Z,10.68
2019-05-14T21:15:48.277Z,11.12
2019-05-14T21:18:34.368Z,11.08
2019-05-14T21:20:58.871Z,11.33
2019-05-14T21:23:33.014Z,10.90
2019-05-14T21:26:08.530Z,10.78
2019-05-14T21:28:42.941Z,10.55
2019-05-14T21:31:18.113Z,10.63
2019-05-14T21:33:54.540Z,10.95
2019-05-14T21:36:28.854Z,11.15
2019-05-14T21:39:02.885Z,10.75
2019-05-14T21:41:38.631Z,11.45
2019-05-14T21:44:12.975Z,10.82
2019-05-14T21:46:48.256Z,10.93
2019-05-14T21:49:22.460Z,10.15
2019-05-14T21:51:58.430Z,10.88
2019-05-14T21:54:33.010Z,11.03
2019-05-14T21:57:08.492Z,11.03
2019-05-14T21:59:43.162Z,10.98
2019-05-14T22:02:26.963Z,11.00
2019-05-14T22:04:55.481Z,11.38
2019-05-14T22:07:30.050Z,11.12
2019-05-14T22:10:04.410Z,11.80
2019-05-14T22:12:39.455Z,11.00
2019-05-14T22:15:14.270Z,11.20
2019-05-14T22:17:49.316Z,10.98
2019-05-14T22:20:23.611Z,11.60
2019-05-14T22:22:59.087Z,11.33
2019-05-14T22:25:34.558Z,10.93
2019-05-14T22:28:14.906Z,11.15
2019-05-14T22:30:44.380Z,11.33
2019-05-14T22:33:19.085Z,11.33
2019-05-14T22:35:53.538Z,11.03
2019-05-14T22:38:29.341Z,11.00
2019-05-14T22:41:04.837Z,11.12
2019-05-14T22:43:39.016Z,11.00
2019-05-14T22:46:13.344Z,11.33
2019-05-14T22:48:51.262Z,11.50
2019-05-14T22:51:23.415Z,11.73
2019-05-14T22:53:58.969Z,11.65
2019-05-14T22:56:33.284Z,11.73
2019-05-14T22:59:07.275Z,12.05
2019-05-14T23:01:41.512Z,11.53
2019-05-14T23:04:15.481Z,11.93
2019-05-14T23:06:49.737Z,11.90
2019-05-14T23:09:23.927Z,11.78
2019-05-14T23:11:58.924Z,11.43
2019-05-14T23:14:33.415Z,11.83
2019-05-14T23:17:08.198Z,10.90
2019-05-14T23:19:42.665Z,11.90
2019-05-14T23:22:18.576Z,11.43
2019-05-14T23:24:52.902Z,12.00
2019-05-14T23:27:29.223Z,11.83
2019-05-14T23:30:06.985Z,11.93
2019-05-14T23:32:41.756Z,11.53
2019-05-14T23:35:18.478Z,11.57
2019-05-14T23:37:51.810Z,12.43
2019-05-14T23:40:26.087Z,11.68
2019-05-14T23:43:00.263Z,11.18
2019-05-14T23:45:34.457Z,12.18
2019-05-14T23:48:09.498Z,12.45
2019-05-14T23:50:43.692Z,12.15
2019-05-14T23:53:18.393Z,11.88
2019-05-14T23:55:52.767Z,11.78
2019-05-14T23:58:28.966Z,12.40
